createdAt,value
2023-02-24T00:02:19.884Z,22.77
2023-02-24T00:04:51.688Z,21.47
2023-02-24T00:07:21.354Z,20.27
2023-02-24T00:09:50.382Z,22.37
2023-02-24T00:12:20.705Z,20.80
2023-02-24T00:14:49.675Z,21.60
2023-02-24T00:17:18.946Z,20.87
2023-02-24T00:19:49.227Z,20.37
2023-02-24T00:22:18.394Z,20.90
2023-02-24T00:24:47.386Z,21.00
2023-02-24T00:27:16.248Z,20.23
2023-02-24T00:29:47.593Z,20.60
2023-02-24T00:32:16.676Z,20.17
2023-02-24T00:34:46.333Z,21.43
2023-02-24T00:37:16.913Z,21.27
2023-02-24T00:39:47.014Z,20.83
2023-02-24T00:42:15.976Z,19.67
2023-02-24T00:44:47.661Z,21.03
2023-02-24T00:47:18.373Z,20.73
2023-02-24T00:49:48.742Z,21.20
2023-02-24T00:52:20.498Z,20.33
2023-02-24T00:54:50.730Z,21.27
2023-02-24T00:57:21.448Z,21.00
2023-02-24T00:59:52.565Z,20.07
2023-02-24T01:02:21.616Z,21.23
2023-02-24T01:04:50.926Z,22.40
2023-02-24T01:07:21.799Z,20.97
2023-02-24T01:09:51.682Z,22.30
2023-02-24T01:12:38.437Z,20.77
2023-02-24T01:15:10.058Z,20.47
2023-02-24T01:17:41.402Z,21.47
2023-02-24T01:20:17.952Z,21.23
2023-02-24T01:22:50.573Z,21.10
2023-02-24T01:25:20.581Z,20.67
2023-02-24T01:27:50.597Z,21.13
2023-02-24T01:30:20.651Z,21.17
2023-02-24T01:32:51.069Z,20.00
2023-02-24T01:35:20.145Z,20.23
2023-02-24T01:37:51.616Z,20.00
2023-02-24T01:40:20.897Z,20.83
2023-02-24T01:42:50.919Z,21.17
2023-02-24T01:45:24.989Z,20.43
2023-02-24T01:47:55.580Z,20.87
2023-02-24T01:50:26.173Z,21.17
2023-02-24T01:53:00.214Z,20.20
2023-02-24T01:55:33.637Z,20.10
2023-02-24T01:58:09.494Z,19.77
2023-02-24T02:00:45.240Z,20.63
2023-02-24T02:03:25.111Z,20.10
2023-02-24T02:05:59.368Z,20.03
2023-02-24T02:08:30.411Z,18.53
2023-02-24T02:11:05.986Z,18.60
2023-02-24T02:13:38.047Z,19.20
2023-02-24T02:16:25.876Z,19.53
2023-02-24T02:19:06.402Z,18.90
2023-02-24T02:22:03.796Z,19.10
2023-02-24T02:24:53.587Z,19.47
2023-02-24T02:27:58.432Z,19.83
2023-02-24T02:31:13.695Z,19.53
2023-02-24T02:34:20.438Z,19.33
2023-02-24T02:36:57.008Z,18.83
2023-02-24T02:39:35.281Z,18.30
2023-02-24T02:42:14.817Z,19.20
2023-02-24T02:44:56.064Z,20.03
2023-02-24T02:47:32.895Z,19.60
2023-02-24T02:50:11.523Z,20.27
2023-02-24T02:52:44.854Z,20.03
2023-02-24T02:55:18.670Z,19.60
2023-02-24T02:57:51.870Z,19.70
2023-02-24T03:00:24.537Z,18.80
2023-02-24T03:02:58.478Z,19.33
2023-02-24T03:05:32.576Z,18.93
2023-02-24T03:08:06.526Z,18.67
2023-02-24T03:10:35.685Z,18.67
2023-02-24T03:13:09.659Z,18.70
2023-02-24T03:15:42.268Z,18.57
2023-02-24T03:18:19.696Z,18.20
2023-02-24T03:20:56.899Z,18.37
2023-02-24T03:23:27.370Z,18.33
2023-02-24T03:26:02.324Z,18.47
2023-02-24T03:28:37.352Z,18.43
2023-02-24T03:31:11.812Z,17.77
2023-02-24T03:33:44.944Z,18.67
2023-02-24T03:36:15.558Z,18.00
2023-02-24T03:38:49.626Z,19.20
2023-02-24T03:41:20.328Z,17.73
2023-02-24T03:43:51.988Z,18.17
2023-02-24T03:46:21.136Z,17.63
2023-02-24T03:48:56.484Z,17.30
2023-02-24T03:51:27.720Z,17.03
2023-02-24T03:54:08.971Z,17.40
2023-02-24T03:56:47.734Z,17.00
2023-02-24T03:59:32.710Z,16.37
2023-02-24T04:02:09.939Z,17.33
2023-02-24T04:04:51.239Z,17.20
2023-02-24T04:07:41.116Z,17.00
2023-02-24T04:10:17.713Z,16.33
2023-02-24T04:12:56.366Z,16.30
2023-02-24T04:15:29.806Z,16.90
2023-02-24T04:18:05.165Z,16.80
2023-02-24T04:20:39.816Z,16.90
2023-02-24T04:23:16.154Z,16.63
2023-02-24T04:25:49.210Z,16.67
2023-02-24T04:28:23.376Z,17.10
2023-02-24T04:30:57.073Z,16.33
2023-02-24T04:33:26.157Z,16.53
2023-02-24T04:35:55.663Z,16.67
2023-02-24T04:38:26.854Z,18.20
2023-02-24T04:40:57.431Z,16.33
2023-02-24T04:43:26.496Z,16.13
2023-02-24T04:45:56.115Z,17.07
2023-02-24T04:48:25.075Z,15.93
2023-02-24T04:50:55.295Z,16.20
2023-02-24T04:53:27.023Z,16.13
2023-02-24T04:55:58.409Z,15.90
2023-02-24T04:58:28.454Z,17.37
2023-02-24T05:00:57.332Z,16.57
2023-02-24T05:03:30.168Z,17.90
2023-02-24T05:06:00.869Z,16.90
2023-02-24T05:08:31.788Z,17.60
2023-02-24T05:11:03.815Z,16.43
2023-02-24T05:13:33.859Z,16.87
2023-02-24T05:16:07.738Z,16.37
2023-02-24T05:18:37.297Z,16.50
2023-02-24T05:21:29.105Z,17.90
2023-02-24T05:23:59.152Z,17.43
2023-02-24T05:26:32.113Z,17.20
2023-02-24T05:29:01.898Z,17.40
2023-02-24T05:31:32.099Z,16.93
2023-02-24T05:34:02.966Z,17.23
2023-02-24T05:36:34.609Z,17.07
2023-02-24T05:39:06.782Z,17.70
2023-02-24T05:41:41.762Z,17.20
2023-02-24T05:44:13.009Z,17.37
2023-02-24T05:46:44.723Z,16.67
2023-02-24T05:49:15.283Z,17.57
2023-02-24T05:51:54.344Z,17.60
2023-02-24T05:54:25.800Z,17.57
2023-02-24T05:56:57.948Z,17.33
2023-02-24T05:59:32.614Z,16.70
2023-02-24T06:02:07.121Z,17.87
2023-02-24T06:04:45.696Z,19.37
2023-02-24T06:07:19.641Z,17.90
2023-02-24T06:09:50.690Z,19.63
2023-02-24T06:12:22.583Z,19.00
2023-02-24T06:14:52.970Z,19.03
2023-02-24T06:17:23.072Z,18.83
2023-02-24T06:19:54.024Z,19.63
2023-02-24T06:22:25.030Z,18.90
2023-02-24T06:24:55.356Z,19.70
2023-02-24T06:27:25.828Z,19.93
2023-02-24T06:29:56.709Z,20.97
2023-02-24T06:32:27.244Z,18.87
2023-02-24T06:34:57.404Z,20.00
2023-02-24T06:37:26.505Z,19.77
2023-02-24T06:39:55.470Z,19.10
2023-02-24T06:42:25.917Z,18.47
2023-02-24T06:44:54.780Z,19.10
2023-02-24T06:47:23.667Z,19.47
2023-02-24T06:49:52.606Z,19.23
2023-02-24T06:52:21.533Z,19.43
2023-02-24T06:54:52.299Z,18.70
2023-02-24T06:57:23.628Z,18.53
2023-02-24T06:59:56.075Z,19.07
2023-02-24T07:02:29.955Z,18.57
2023-02-24T07:04:58.938Z,18.97
2023-02-24T07:07:29.146Z,20.37
2023-02-24T07:09:58.120Z,19.60
2023-02-24T07:12:27.101Z,18.50
2023-02-24T07:14:57.541Z,18.77
2023-02-24T07:17:26.508Z,17.67
2023-02-24T07:19:57.104Z,18.13
2023-02-24T07:22:26.041Z,17.60
2023-02-24T07:25:00.303Z,17.00
2023-02-24T07:27:30.047Z,17.70
2023-02-24T07:30:05.980Z,17.17
2023-02-24T07:32:35.295Z,16.97
2023-02-24T07:35:05.737Z,17.23
2023-02-24T07:37:34.807Z,17.70
2023-02-24T07:40:08.051Z,16.53
2023-02-24T07:42:37.110Z,16.90
2023-02-24T07:45:13.734Z,16.90
2023-02-24T07:47:43.177Z,16.33
2023-02-24T07:50:18.314Z,17.80
2023-02-24T07:52:48.185Z,18.23
2023-02-24T07:55:19.199Z,18.43
2023-02-24T07:57:49.031Z,17.53
2023-02-24T08:00:21.131Z,17.13
2023-02-24T08:02:51.622Z,17.03
2023-02-24T08:05:25.221Z,17.80
2023-02-24T08:07:56.997Z,18.07
2023-02-24T08:10:27.896Z,16.87
2023-02-24T08:13:03.062Z,18.97
2023-02-24T08:15:34.861Z,17.83
2023-02-24T08:18:05.629Z,19.30
2023-02-24T08:20:52.020Z,19.73
2023-02-24T08:23:23.395Z,20.10
2023-02-24T08:25:53.786Z,18.70
2023-02-24T08:28:26.764Z,20.87
2023-02-24T08:30:57.173Z,19.73
2023-02-24T08:33:30.007Z,19.43
2023-02-24T08:36:02.491Z,19.90
2023-02-24T08:38:44.834Z,19.70
2023-02-24T08:41:18.227Z,20.63
2023-02-24T08:43:48.796Z,20.63
2023-02-24T08:46:25.692Z,19.47
2023-02-24T08:48:56.477Z,19.30
2023-02-24T08:51:30.037Z,20.27
2023-02-24T08:54:00.650Z,20.03
2023-02-24T08:56:34.351Z,20.17
2023-02-24T08:59:06.346Z,19.67
2023-02-24T09:01:39.822Z,21.53
2023-02-24T09:04:10.689Z,19.20
2023-02-24T09:06:44.777Z,20.33
2023-02-24T09:09:21.109Z,20.40
2023-02-24T09:11:56.343Z,19.13
2023-02-24T09:14:28.923Z,19.20
2023-02-24T09:17:03.307Z,20.50
2023-02-24T09:19:56.728Z,19.03
2023-02-24T09:22:32.397Z,19.20
2023-02-24T09:25:21.477Z,17.73
2023-02-24T09:27:56.257Z,17.63
2023-02-24T09:30:39.096Z,17.60
2023-02-24T09:33:22.514Z,17.60
2023-02-24T09:36:02.876Z,18.10
2023-02-24T09:39:07.903Z,17.63
2023-02-24T09:41:56.827Z,15.73
2023-02-24T09:44:33.286Z,16.43
2023-02-24T09:47:10.773Z,15.77
2023-02-24T09:49:56.602Z,15.90
2023-02-24T09:52:39.591Z,15.83
2023-02-24T09:55:25.924Z,16.07
2023-02-24T09:58:19.931Z,14.30
2023-02-24T10:00:57.386Z,14.67
2023-02-24T10:03:42.638Z,14.33
2023-02-24T10:06:20.594Z,14.17
2023-02-24T10:08:55.093Z,13.83
2023-02-24T10:11:32.989Z,13.13
2023-02-24T10:14:06.044Z,13.97
2023-02-24T10:16:46.276Z,13.57
2023-02-24T10:19:25.574Z,13.83
2023-02-24T10:22:03.367Z,14.33
2023-02-24T10:24:41.175Z,12.77
2023-02-24T10:27:17.304Z,14.33
2023-02-24T10:30:01.306Z,14.10
2023-02-24T10:32:43.168Z,14.43
2023-02-24T10:35:16.550Z,14.40
2023-02-24T10:37:47.434Z,13.27
2023-02-24T10:40:26.484Z,12.87
2023-02-24T10:43:10.400Z,12.47
2023-02-24T10:45:45.406Z,13.43
2023-02-24T10:48:40.251Z,12.97
2023-02-24T10:51:20.144Z,12.47
2023-02-24T10:54:10.017Z,12.90
2023-02-24T10:56:55.223Z,12.50
2023-02-24T10:59:58.241Z,11.13
2023-02-24T11:02:33.182Z,11.93
2023-02-24T11:05:27.057Z,11.53
2023-02-24T11:08:09.605Z,11.67
2023-02-24T11:10:53.390Z,11.30
2023-02-24T11:13:40.105Z,11.83
2023-02-24T11:16:28.601Z,11.43
2023-02-24T11:18:59.103Z,11.23
2023-02-24T11:21:28.847Z,11.00
2023-02-24T11:24:02.715Z,11.33
2023-02-24T11:26:37.844Z,10.40
2023-02-24T11:29:29.130Z,11.47
2023-02-24T11:32:14.878Z,11.13
2023-02-24T11:34:50.598Z,11.63
2023-02-24T11:37:34.680Z,11.47
2023-02-24T11:40:09.801Z,11.60
2023-02-24T11:42:46.236Z,11.97
2023-02-24T11:45:26.614Z,11.57
2023-02-24T11:47:59.898Z,11.40
2023-02-24T11:50:39.645Z,11.10
2023-02-24T11:53:21.265Z,11.30
2023-02-24T11:55:59.251Z,11.27
2023-02-24T11:58:36.496Z,11.90
2023-02-24T12:01:14.378Z,11.47
2023-02-24T12:03:51.768Z,11.47
2023-02-24T12:06:24.424Z,11.20
2023-02-24T12:08:58.455Z,11.77
2023-02-24T12:11:41.671Z,11.27
2023-02-24T12:14:23.449Z,11.63
2023-02-24T12:17:01.069Z,11.80
2023-02-24T12:19:37.247Z,11.63
2023-02-24T12:22:12.978Z,11.67
2023-02-24T12:24:47.306Z,12.00
2023-02-24T12:27:27.581Z,11.20
2023-02-24T12:30:23.096Z,11.53
2023-02-24T12:33:02.133Z,11.27
2023-02-24T12:35:40.489Z,12.27
2023-02-24T12:38:33.695Z,11.27
2023-02-24T12:41:17.178Z,11.13
2023-02-24T12:43:55.142Z,11.47
2023-02-24T12:46:31.466Z,11.33
2023-02-24T12:49:18.898Z,11.20
2023-02-24T12:52:00.246Z,11.63
2023-02-24T12:54:34.582Z,11.43
2023-02-24T12:57:09.809Z,11.40
2023-02-24T12:59:41.972Z,11.73
2023-02-24T13:02:21.020Z,12.00
2023-02-24T13:04:57.727Z,11.57
2023-02-24T13:07:45.905Z,11.97
2023-02-24T13:10:25.838Z,11.43
2023-02-24T13:13:03.768Z,11.80
2023-02-24T13:15:33.771Z,12.47
2023-02-24T13:18:04.214Z,12.03
2023-02-24T13:20:36.440Z,11.80
2023-02-24T13:23:20.746Z,12.53
2023-02-24T13:25:52.732Z,12.27
2023-02-24T13:28:26.825Z,12.20
2023-02-24T13:31:00.477Z,12.17
2023-02-24T13:33:33.904Z,11.83
2023-02-24T13:36:14.736Z,12.37
2023-02-24T13:38:45.783Z,11.83
2023-02-24T13:41:38.596Z,12.93
2023-02-24T13:44:29.304Z,12.30
2023-02-24T13:47:25.457Z,12.03
2023-02-24T13:50:09.576Z,11.47
2023-02-24T13:52:58.804Z,11.90
2023-02-24T13:55:41.265Z,12.30
2023-02-24T13:58:29.874Z,11.83
2023-02-24T14:01:08.264Z,11.67
2023-02-24T14:03:40.962Z,11.63
2023-02-24T14:06:18.694Z,10.63
2023-02-24T14:08:54.217Z,11.23
2023-02-24T14:11:28.484Z,11.23
2023-02-24T14:13:58.640Z,12.00
2023-02-24T14:16:32.617Z,11.30
2023-02-24T14:19:03.237Z,11.80
2023-02-24T14:21:34.985Z,12.13
2023-02-24T14:24:06.192Z,12.30
2023-02-24T14:26:42.527Z,10.63
2023-02-24T14:29:12.377Z,11.80
2023-02-24T14:31:42.584Z,11.23
2023-02-24T14:34:19.170Z,11.20
2023-02-24T14:36:51.907Z,11.23
2023-02-24T14:39:23.058Z,11.40
2023-02-24T14:42:04.185Z,11.00
2023-02-24T14:44:34.109Z,11.20
2023-02-24T14:47:06.458Z,11.77
2023-02-24T14:49:36.851Z,10.57
2023-02-24T14:52:11.839Z,10.63
2023-02-24T14:54:47.366Z,11.27
2023-02-24T14:57:21.039Z,10.63
2023-02-24T14:59:53.468Z,12.47
2023-02-24T15:02:28.693Z,11.33
2023-02-24T15:04:58.189Z,11.07
2023-02-24T15:07:32.000Z,11.57
2023-02-24T15:10:02.048Z,10.83
2023-02-24T15:12:33.932Z,10.70
2023-02-24T15:15:06.684Z,11.43
2023-02-24T15:17:41.236Z,11.30
2023-02-24T15:20:29.253Z,11.23
2023-02-24T15:22:59.958Z,10.90
2023-02-24T15:25:41.832Z,11.13
2023-02-24T15:28:25.514Z,11.00
2023-02-24T15:31:00.484Z,10.00
2023-02-24T15:33:35.182Z,11.30
2023-02-24T15:36:10.163Z,10.43
2023-02-24T15:38:43.254Z,10.53
2023-02-24T15:41:14.497Z,11.43
2023-02-24T15:43:48.452Z,11.00
2023-02-24T15:46:24.848Z,11.13
2023-02-24T15:48:56.345Z,10.93
2023-02-24T15:51:33.858Z,10.93
2023-02-24T15:54:06.870Z,11.07
2023-02-24T15:56:36.855Z,11.53
2023-02-24T15:59:06.121Z,11.70
2023-02-24T16:01:35.470Z,11.83
2023-02-24T16:04:05.604Z,11.10
2023-02-24T16:06:36.023Z,11.50
2023-02-24T16:09:06.618Z,11.70
2023-02-24T16:11:39.666Z,11.83
2023-02-24T16:14:15.017Z,11.27
2023-02-24T16:16:44.325Z,10.77
2023-02-24T16:19:15.588Z,11.80
2023-02-24T16:21:44.728Z,11.47
2023-02-24T16:24:15.390Z,11.90
2023-02-24T16:26:44.495Z,11.87
2023-02-24T16:29:15.985Z,11.63
2023-02-24T16:31:45.311Z,11.30
2023-02-24T16:34:16.799Z,11.40
2023-02-24T16:36:47.493Z,11.60
2023-02-24T16:39:18.085Z,12.30
2023-02-24T16:41:47.148Z,12.20
2023-02-24T16:44:16.424Z,12.40
2023-02-24T16:46:46.317Z,12.60
2023-02-24T16:49:20.795Z,12.67
2023-02-24T16:51:49.825Z,12.60
2023-02-24T16:54:21.952Z,13.13
2023-02-24T16:56:51.113Z,12.70
2023-02-24T16:59:20.220Z,12.83
2023-02-24T17:01:49.394Z,13.70
2023-02-24T17:04:18.500Z,14.00
2023-02-24T17:06:47.781Z,11.83
2023-02-24T17:09:17.985Z,13.37
2023-02-24T17:11:48.418Z,13.07
2023-02-24T17:14:19.169Z,12.70
2023-02-24T17:16:48.840Z,13.43
2023-02-24T17:19:17.996Z,13.60
2023-02-24T17:21:47.551Z,13.23
2023-02-24T17:24:18.614Z,13.40
2023-02-24T17:26:49.101Z,12.80
2023-02-24T17:29:18.109Z,13.03
2023-02-24T17:31:47.881Z,13.73
2023-02-24T17:34:16.917Z,12.87
2023-02-24T17:36:45.882Z,12.67
2023-02-24T17:39:15.026Z,13.17
2023-02-24T17:41:43.984Z,12.63
2023-02-24T17:44:14.497Z,14.00
2023-02-24T17:46:44.271Z,12.50
2023-02-24T17:49:14.964Z,13.20
2023-02-24T17:51:43.862Z,13.13
2023-02-24T17:54:12.922Z,12.83
2023-02-24T17:56:41.884Z,12.60
2023-02-24T17:59:10.967Z,11.90
2023-02-24T18:01:41.473Z,13.20
2023-02-24T18:04:13.040Z,12.43
2023-02-24T18:06:42.185Z,12.97
2023-02-24T18:09:11.346Z,12.97
2023-02-24T18:11:40.564Z,13.47
2023-02-24T18:14:09.680Z,13.07
2023-02-24T18:16:38.756Z,13.03
2023-02-24T18:19:09.488Z,14.13
2023-02-24T18:21:38.586Z,13.03
2023-02-24T18:24:08.391Z,14.20
2023-02-24T18:26:37.699Z,13.93
2023-02-24T18:29:07.410Z,13.10
2023-02-24T18:31:36.821Z,13.40
2023-02-24T18:34:06.982Z,13.03
2023-02-24T18:36:37.644Z,13.70
2023-02-24T18:39:09.026Z,14.20
2023-02-24T18:41:38.278Z,13.60
2023-02-24T18:44:07.419Z,14.43
2023-02-24T18:46:36.633Z,14.57
2023-02-24T18:49:08.741Z,13.37
2023-02-24T18:51:39.363Z,13.80
2023-02-24T18:54:08.478Z,13.30
2023-02-24T18:56:37.600Z,13.27
2023-02-24T18:59:06.730Z,13.43
2023-02-24T19:01:38.659Z,13.67
2023-02-24T19:04:09.427Z,13.70
2023-02-24T19:06:41.835Z,12.90
2023-02-24T19:09:12.166Z,13.13
2023-02-24T19:11:42.426Z,13.33
2023-02-24T19:14:13.864Z,13.80
2023-02-24T19:16:43.153Z,14.07
2023-02-24T19:19:13.685Z,13.20
2023-02-24T19:21:45.911Z,12.97
2023-02-24T19:24:15.302Z,13.10
2023-02-24T19:26:47.316Z,12.67
2023-02-24T19:29:17.280Z,12.83
2023-02-24T19:31:46.635Z,12.27
2023-02-24T19:34:16.261Z,11.60
2023-02-24T19:36:46.779Z,11.27
2023-02-24T19:39:17.544Z,10.60
2023-02-24T19:41:49.198Z,10.37
2023-02-24T19:44:18.981Z,10.77
2023-02-24T19:46:47.895Z,10.30
2023-02-24T19:49:17.103Z,9.97
2023-02-24T19:51:48.452Z,9.53
2023-02-24T19:54:17.604Z,9.27
2023-02-24T19:56:46.656Z,9.90
2023-02-24T19:59:15.878Z,10.07
2023-02-24T20:01:44.970Z,10.57
2023-02-24T20:04:14.083Z,10.37
2023-02-24T20:06:44.032Z,9.87
2023-02-24T20:09:17.489Z,9.87
2023-02-24T20:11:46.760Z,10.00
2023-02-24T20:14:17.045Z,9.30
2023-02-24T20:16:45.882Z,9.43
2023-02-24T20:19:17.272Z,9.03
2023-02-24T20:21:46.486Z,9.90
2023-02-24T20:24:18.153Z,9.20
2023-02-24T20:26:49.568Z,9.43
2023-02-24T20:29:20.632Z,9.13
2023-02-24T20:31:50.493Z,9.17
2023-02-24T20:34:19.566Z,9.43
2023-02-24T20:36:48.407Z,10.90
2023-02-24T20:39:18.987Z,11.73
2023-02-24T20:41:50.231Z,9.43
2023-02-24T20:44:19.434Z,9.00
2023-02-24T20:46:48.454Z,9.10
2023-02-24T20:49:17.359Z,9.17
2023-02-24T20:51:47.412Z,8.87
2023-02-24T20:54:18.250Z,8.83
2023-02-24T20:56:48.390Z,8.53
2023-02-24T20:59:18.680Z,8.63
2023-02-24T21:01:48.872Z,8.37
2023-02-24T21:04:20.397Z,8.80
2023-02-24T21:06:51.396Z,8.90
2023-02-24T21:09:22.203Z,8.17
2023-02-24T21:11:51.363Z,8.30
2023-02-24T21:14:22.065Z,8.53
2023-02-24T21:16:51.062Z,8.43
2023-02-24T21:19:23.302Z,8.50
2023-02-24T21:21:52.420Z,8.27
2023-02-24T21:24:23.979Z,7.97
2023-02-24T21:26:52.881Z,8.10
2023-02-24T21:29:22.372Z,8.43
2023-02-24T21:31:51.570Z,8.30
2023-02-24T21:34:21.272Z,8.47
2023-02-24T21:36:50.741Z,8.10
2023-02-24T21:39:20.913Z,8.27
2023-02-24T21:41:53.126Z,8.07
2023-02-24T21:44:22.477Z,8.03
2023-02-24T21:46:51.666Z,8.20
2023-02-24T21:49:20.864Z,8.33
2023-02-24T21:51:50.752Z,8.47
2023-02-24T21:54:19.694Z,8.47
2023-02-24T21:56:49.498Z,8.53
2023-02-24T21:59:20.027Z,8.30
2023-02-24T22:01:49.677Z,8.40
2023-02-24T22:04:20.283Z,8.57
2023-02-24T22:06:50.194Z,8.83
2023-02-24T22:09:20.082Z,8.73
2023-02-24T22:11:50.555Z,8.97
2023-02-24T22:14:21.308Z,8.63
2023-02-24T22:16:50.931Z,9.27
2023-02-24T22:19:20.106Z,8.63
2023-02-24T22:21:51.554Z,9.17
2023-02-24T22:24:21.161Z,9.57
2023-02-24T22:26:51.077Z,9.27
2023-02-24T22:29:22.690Z,10.00
2023-02-24T22:31:53.366Z,9.80
2023-02-24T22:34:22.310Z,9.47
2023-02-24T22:36:54.569Z,9.60
2023-02-24T22:39:23.579Z,8.90
2023-02-24T22:41:52.825Z,9.67
2023-02-24T22:44:26.019Z,9.93
2023-02-24T22:46:55.132Z,9.70
2023-02-24T22:49:28.086Z,10.17
2023-02-24T22:51:57.338Z,9.77
2023-02-24T22:54:26.563Z,9.90
2023-02-24T22:56:56.601Z,10.30
2023-02-24T22:59:26.960Z,10.03
2023-02-24T23:01:55.929Z,10.03
2023-02-24T23:04:35.323Z,10.17
2023-02-24T23:07:06.189Z,10.10
2023-02-24T23:09:39.092Z,9.90
2023-02-24T23:12:11.622Z,9.87
2023-02-24T23:14:44.928Z,10.40
2023-02-24T23:17:16.216Z,10.60
2023-02-24T23:19:47.286Z,10.40
2023-02-24T23:22:19.176Z,10.20
2023-02-24T23:24:48.074Z,9.80
2023-02-24T23:27:17.066Z,10.23
2023-02-24T23:29:47.366Z,10.13
2023-02-24T23:32:16.416Z,10.50
2023-02-24T23:34:45.798Z,10.40
2023-02-24T23:37:16.442Z,10.70
2023-02-24T23:39:45.299Z,10.43
2023-02-24T23:42:14.089Z,10.60
2023-02-24T23:44:44.157Z,9.93
2023-02-24T23:47:14.674Z,10.10
2023-02-24T23:49:48.499Z,10.43
2023-02-24T23:52:18.247Z,10.07
2023-02-24T23:54:49.812Z,10.50
2023-02-24T23:57:19.175Z,9.90
2023-02-24T23:59:47.924Z,10.13
